Navibreeze — V4JJ2 — position and weather

sailwx.info

Track history (hours):
 
Tides and Currents Weather Stations Pressure Air Temp Water Temp Dewpoint Dewpoint Depression Visibility Wind Speed Wind Dir Waves Ship Positions

Navibreeze

Last reported at 2014-Dec-17 00:30 UTC. Time now 2014-Dec-21 09:55 UTC.
Position N 40°57' E 028°60'.

; draft 2.7 m.

Type: Cargo ship. MMSI: 341071000.

Date/timePositionNaut miles runAvg speedWind from/ knotsBaromVisibWave heightAir tempDewpointWater temp
2014-Dec-17 00:30N 40°57' E 028°60'3 3.0
2014-Dec-16 23:32N 40°56' E 029°03'6 5.6
2014-Dec-16 22:32N 40°53' E 029°09'0 0.1
2014-Dec-16 20:07N 40°53' E 029°10'0 0.0
2014-Dec-16 19:31N 40°53' E 029°10'0 0.0
2014-Dec-16 18:25N 40°53' E 029°10'0 0.0
2014-Dec-16 17:25N 40°53' E 029°10'0 0.0
2014-Dec-16 16:32N 40°53' E 029°10'0 0.0
2014-Dec-16 15:13N 40°53' E 029°10'0 0.0
2014-Dec-16 14:19N 40°53' E 029°10'0 0.0
2014-Dec-16 13:31N 40°53' E 029°10'0 0.0
2014-Dec-16 12:19N 40°53' E 029°10'1 1.6
2014-Dec-16 11:33N 40°51' E 029°10'8 7.0
2014-Dec-16 10:27N 40°47' E 029°02'7 8.1
2014-Dec-16 09:32N 40°46' E 028°52'0 0.3
2014-Dec-16 08:27N 40°45' E 028°52'0 0.4
2014-Dec-16 07:33N 40°45' E 028°52'0 0.3
2014-Dec-16 06:33N 40°45' E 028°52'  
2014-Dec-07 17:14N 41°25' E 029°27'5 7.4
2014-Dec-07 16:33N 41°26' E 029°34'  
Track history (hours):
 
Tides and Currents Weather Stations Pressure Air Temp Water Temp Dewpoint Dewpoint Depression Visibility Wind Speed Wind Dir Waves Ship Positions

Navibreeze

Last reported at 2014-Dec-17 00:30 UTC. Time now 2014-Dec-21 09:55 UTC.
Position N 40°57' E 028°60'.

; draft 2.7 m.

Type: Cargo ship. MMSI: 341071000.

Date/timePositionNaut miles runAvg speedWind from/ knotsBaromVisibWave heightAir tempDewpointWater temp
2014-Dec-17 00:30N 40°57' E 028°60'3 3.0
2014-Dec-16 23:32N 40°56' E 029°03'6 5.6
2014-Dec-16 22:32N 40°53' E 029°09'0 0.1
2014-Dec-16 20:07N 40°53' E 029°10'0 0.0
2014-Dec-16 19:31N 40°53' E 029°10'0 0.0
2014-Dec-16 18:25N 40°53' E 029°10'0 0.0
2014-Dec-16 17:25N 40°53' E 029°10'0 0.0
2014-Dec-16 16:32N 40°53' E 029°10'0 0.0
2014-Dec-16 15:13N 40°53' E 029°10'0 0.0
2014-Dec-16 14:19N 40°53' E 029°10'0 0.0
2014-Dec-16 13:31N 40°53' E 029°10'0 0.0
2014-Dec-16 12:19N 40°53' E 029°10'1 1.6
2014-Dec-16 11:33N 40°51' E 029°10'8 7.0
2014-Dec-16 10:27N 40°47' E 029°02'7 8.1
2014-Dec-16 09:32N 40°46' E 028°52'0 0.3
2014-Dec-16 08:27N 40°45' E 028°52'0 0.4
2014-Dec-16 07:33N 40°45' E 028°52'0 0.3
2014-Dec-16 06:33N 40°45' E 028°52'  
2014-Dec-07 17:14N 41°25' E 029°27'5 7.4
2014-Dec-07 16:33N 41°26' E 029°34'  

Dump ship's entire track history